Albin, Wyoming
Current Conditions -  °F | °C
As of 8:55 AM on Friday 21 Nov 2014 (Local Time) from K82V Reporting Station
Overcast Overcast  
Wind Chill: 38°   Ceiling: 8000
Heat Index: 41°   Visibility: 10mi
Dew Point: 21°   Wind: 5mph
Humidity: 45%   Direction: 200°SSW
Pressure: 29.96"   Gusts: NA
Location:  41.42°N, 104.1°W
Report Text: K82V 211555Z AUTO 20004KT 10SM BKN080 OVC090 05/M06 A2996 RMK AO2
Loading
Personal Weather Stations






























Interactive Weather Map New forecast layout! Learn more

10-Day Weather Forecast

Advertisements
Track Severe Weather on mobile